createdAt,value
2022-12-18T00:01:23.688Z,-6.44
2022-12-18T00:03:52.196Z,-6.44
2022-12-18T00:06:20.381Z,-6.43
2022-12-18T00:08:47.678Z,-6.42
2022-12-18T00:11:17.111Z,-6.41
2022-12-18T00:13:44.655Z,-6.41
2022-12-18T00:16:15.314Z,-6.41
2022-12-18T00:18:42.808Z,-6.41
2022-12-18T00:21:12.348Z,-6.43
2022-12-18T00:23:41.711Z,-6.46
2022-12-18T00:26:12.916Z,-6.50
2022-12-18T00:28:39.638Z,-6.52
2022-12-18T00:31:11.110Z,-6.54
2022-12-18T00:33:39.036Z,-6.56
2022-12-18T00:36:09.970Z,-6.56
2022-12-18T00:38:37.942Z,-6.60
2022-12-18T00:41:05.760Z,-6.60
2022-12-18T00:43:37.157Z,-6.62
2022-12-18T00:46:04.620Z,-6.64
2022-12-18T00:48:32.818Z,-6.66
2022-12-18T00:50:59.510Z,-6.68
2022-12-18T00:53:26.280Z,-6.69
2022-12-18T00:55:53.050Z,-6.71
2022-12-18T00:58:19.731Z,-6.71
2022-12-18T01:00:46.526Z,-6.73
2022-12-18T01:03:14.688Z,-6.73
2022-12-18T01:05:42.898Z,-6.75
2022-12-18T01:08:10.007Z,-6.77
2022-12-18T01:10:36.942Z,-6.79
2022-12-18T01:13:03.734Z,-6.80
2022-12-18T01:15:30.404Z,-6.82
2022-12-18T01:17:57.285Z,-6.85
2022-12-18T01:20:24.081Z,-6.88
2022-12-18T01:22:50.789Z,-6.91
2022-12-18T01:25:17.814Z,-6.93
2022-12-18T01:27:44.612Z,-6.94
2022-12-18T01:30:11.690Z,-6.95
2022-12-18T01:32:38.554Z,-6.95
2022-12-18T01:35:06.299Z,-6.96
2022-12-18T01:37:33.077Z,-6.96
2022-12-18T01:39:59.856Z,-6.97
2022-12-18T01:42:26.642Z,-6.98
2022-12-18T01:45:00.085Z,-6.99
2022-12-18T01:47:26.874Z,-7.00
2022-12-18T01:49:55.009Z,-7.01
2022-12-18T01:52:25.886Z,-7.01
2022-12-18T01:54:53.541Z,-6.99
2022-12-18T01:57:22.480Z,-6.97
2022-12-18T01:59:53.494Z,-7.00
2022-12-18T02:02:21.683Z,-7.03
2022-12-18T02:04:49.707Z,-7.06
2022-12-18T02:07:46.296Z,-7.07
2022-12-18T02:10:25.188Z,-7.07
2022-12-18T02:13:07.601Z,-7.09
2022-12-18T02:15:41.845Z,-7.12
2022-12-18T02:18:14.951Z,-7.15
2022-12-18T02:20:49.645Z,-7.17
2022-12-18T02:23:48.240Z,-7.20
2022-12-18T02:26:29.152Z,-7.18
2022-12-18T02:29:02.767Z,-7.15
2022-12-18T02:31:37.166Z,-7.12
2022-12-18T02:34:07.237Z,-7.13
2022-12-18T02:36:36.693Z,-7.16
2022-12-18T02:39:06.854Z,-7.19
2022-12-18T02:41:36.625Z,-7.22
2022-12-18T02:44:09.362Z,-7.24
2022-12-18T02:46:41.046Z,-7.27
2022-12-18T02:49:22.235Z,-7.28
2022-12-18T02:52:10.690Z,-7.29
2022-12-18T02:55:02.476Z,-7.32
2022-12-18T02:57:53.837Z,-7.36
2022-12-18T03:00:32.070Z,-7.39
2022-12-18T03:03:14.878Z,-7.41
2022-12-18T03:05:47.311Z,-7.41
2022-12-18T03:08:27.869Z,-7.42
2022-12-18T03:11:07.259Z,-7.45
2022-12-18T03:13:39.849Z,-7.46
2022-12-18T03:16:11.625Z,-7.45
2022-12-18T03:18:48.711Z,-7.45
2022-12-18T03:21:28.909Z,-7.46
2022-12-18T03:23:57.339Z,-7.48
2022-12-18T03:26:28.365Z,-7.46
2022-12-18T03:29:05.373Z,-7.47
2022-12-18T03:31:33.401Z,-7.49
2022-12-18T03:34:04.594Z,-7.52
2022-12-18T03:36:32.125Z,-7.52
2022-12-18T03:38:59.358Z,-7.53
2022-12-18T03:41:39.952Z,-7.56
2022-12-18T03:44:20.177Z,-7.59
2022-12-18T03:46:53.123Z,-7.62
2022-12-18T03:49:30.637Z,-7.64
2022-12-18T03:52:05.430Z,-7.66
2022-12-18T03:54:34.401Z,-7.65
2022-12-18T03:57:23.088Z,-7.65
2022-12-18T03:59:55.029Z,-7.67
2022-12-18T04:02:24.095Z,-7.71
2022-12-18T04:04:54.058Z,-7.74
2022-12-18T04:07:21.736Z,-7.78
2022-12-18T04:09:51.021Z,-7.82
2022-12-18T04:12:17.775Z,-7.85
2022-12-18T04:14:45.327Z,-7.86
2022-12-18T04:17:12.783Z,-7.88
2022-12-18T04:19:39.887Z,-7.90
2022-12-18T04:22:10.819Z,-7.91
2022-12-18T04:24:37.818Z,-7.91
2022-12-18T04:27:05.121Z,-7.94
2022-12-18T04:29:33.142Z,-7.95
2022-12-18T04:31:59.954Z,-7.97
2022-12-18T04:34:26.997Z,-7.99
2022-12-18T04:36:53.751Z,-8.04
2022-12-18T04:39:20.498Z,-8.09
2022-12-18T04:41:47.291Z,-8.13
2022-12-18T04:44:14.193Z,-8.16
2022-12-18T04:46:41.014Z,-8.19
2022-12-18T04:49:08.256Z,-8.21
2022-12-18T04:51:34.931Z,-8.23
2022-12-18T04:54:01.802Z,-8.23
2022-12-18T04:56:28.538Z,-8.23
2022-12-18T04:58:55.207Z,-8.24
2022-12-18T05:01:22.063Z,-8.25
2022-12-18T05:03:49.021Z,-8.25
2022-12-18T05:06:15.725Z,-8.25
2022-12-18T05:08:42.593Z,-8.25
2022-12-18T05:11:12.661Z,-8.25
2022-12-18T05:13:39.877Z,-8.24
2022-12-18T05:16:08.746Z,-8.25
2022-12-18T05:18:36.438Z,-8.26
2022-12-18T05:21:03.847Z,-8.26
2022-12-18T05:23:30.825Z,-8.26
2022-12-18T05:26:00.006Z,-8.24
2022-12-18T05:28:29.330Z,-8.21
2022-12-18T05:30:59.246Z,-8.20
2022-12-18T05:33:27.432Z,-8.21
2022-12-18T05:35:59.157Z,-8.21
2022-12-18T05:38:27.540Z,-8.22
2022-12-18T05:40:54.844Z,-8.22
2022-12-18T05:43:22.769Z,-8.22
2022-12-18T05:45:50.525Z,-8.22
2022-12-18T05:48:17.594Z,-8.21
2022-12-18T05:50:46.670Z,-8.19
2022-12-18T05:53:15.398Z,-8.18
2022-12-18T05:55:43.856Z,-8.16
2022-12-18T05:58:12.624Z,-8.15
2022-12-18T06:00:41.986Z,-8.15
2022-12-18T06:03:10.628Z,-8.16
2022-12-18T06:05:40.407Z,-8.19
2022-12-18T06:08:07.261Z,-8.23
2022-12-18T06:10:34.069Z,-8.25
2022-12-18T06:13:01.533Z,-8.26
2022-12-18T06:15:28.554Z,-8.24
2022-12-18T06:17:55.268Z,-8.23
2022-12-18T06:20:22.095Z,-8.22
2022-12-18T06:22:48.932Z,-8.21
2022-12-18T06:25:16.434Z,-8.21
2022-12-18T06:27:43.341Z,-8.22
2022-12-18T06:30:11.993Z,-8.22
2022-12-18T06:32:39.347Z,-8.22
2022-12-18T06:35:07.090Z,-8.24
2022-12-18T06:37:33.854Z,-8.24
2022-12-18T06:40:01.465Z,-8.29
2022-12-18T06:42:29.250Z,-8.33
2022-12-18T06:44:56.037Z,-8.34
2022-12-18T06:47:22.766Z,-8.35
2022-12-18T06:49:49.545Z,-8.38
2022-12-18T06:52:17.084Z,-8.39
2022-12-18T06:54:43.824Z,-8.39
2022-12-18T06:57:10.680Z,-8.40
2022-12-18T06:59:37.462Z,-8.42
2022-12-18T07:02:05.059Z,-8.43
2022-12-18T07:04:32.527Z,-8.44
2022-12-18T07:06:59.316Z,-8.43
2022-12-18T07:09:26.203Z,-8.43
2022-12-18T07:11:53.716Z,-8.43
2022-12-18T07:14:20.536Z,-8.44
2022-12-18T07:16:48.147Z,-8.44
2022-12-18T07:19:15.367Z,-8.44
2022-12-18T07:21:42.317Z,-8.43
2022-12-18T07:24:09.061Z,-8.45
2022-12-18T07:26:35.793Z,-8.50
2022-12-18T07:29:02.618Z,-8.52
2022-12-18T07:31:29.360Z,-8.54
2022-12-18T07:33:56.421Z,-8.56
2022-12-18T07:36:23.298Z,-8.56
2022-12-18T07:38:52.357Z,-8.57
2022-12-18T07:41:19.631Z,-8.56
2022-12-18T07:43:46.999Z,-8.55
2022-12-18T07:46:15.316Z,-8.54
2022-12-18T07:48:44.246Z,-8.52
2022-12-18T07:51:13.953Z,-8.51
2022-12-18T07:53:41.815Z,-8.50
2022-12-18T07:56:27.043Z,-8.51
2022-12-18T07:58:57.070Z,-8.51
2022-12-18T08:01:24.518Z,-8.50
2022-12-18T08:03:52.104Z,-8.49
2022-12-18T08:06:19.347Z,-8.47
2022-12-18T08:08:50.712Z,-8.47
2022-12-18T08:11:17.494Z,-8.48
2022-12-18T08:13:44.292Z,-8.48
2022-12-18T08:16:11.235Z,-8.47
2022-12-18T08:18:38.263Z,-8.48
2022-12-18T08:21:12.830Z,-8.48
2022-12-18T08:23:43.079Z,-8.49
2022-12-18T08:26:12.477Z,-8.47
2022-12-18T08:28:39.761Z,-8.43
2022-12-18T08:31:08.247Z,-8.40
2022-12-18T08:33:36.850Z,-8.37
2022-12-18T08:36:05.185Z,-8.37
2022-12-18T08:38:33.482Z,-8.37
2022-12-18T08:41:05.616Z,-8.38
2022-12-18T08:43:50.908Z,-8.43
2022-12-18T08:46:18.550Z,-8.49
2022-12-18T08:48:45.805Z,-8.52
2022-12-18T08:51:13.946Z,-8.53
2022-12-18T08:53:41.193Z,-8.52
2022-12-18T08:56:08.421Z,-8.53
2022-12-18T08:58:35.192Z,-8.52
2022-12-18T09:01:06.087Z,-8.49
2022-12-18T09:03:34.658Z,-8.46
2022-12-18T09:06:01.928Z,-8.41
2022-12-18T09:08:29.651Z,-8.35
2022-12-18T09:10:56.415Z,-8.30
2022-12-18T09:13:23.598Z,-8.25
2022-12-18T09:15:54.872Z,-8.18
2022-12-18T09:18:23.791Z,-8.12
2022-12-18T09:20:52.830Z,-8.07
2022-12-18T09:23:20.180Z,-8.02
2022-12-18T09:25:47.050Z,-7.96
2022-12-18T09:28:16.125Z,-7.94
2022-12-18T09:30:48.433Z,-7.90
2022-12-18T09:33:16.516Z,-7.85
2022-12-18T09:35:47.252Z,-7.83
2022-12-18T09:38:19.967Z,-7.83
2022-12-18T09:40:59.227Z,-7.82
2022-12-18T09:43:50.681Z,-7.80
2022-12-18T09:46:40.979Z,-7.79
2022-12-18T09:49:15.256Z,-7.82
2022-12-18T09:51:51.391Z,-7.82
2022-12-18T09:54:40.097Z,-7.80
2022-12-18T09:57:11.278Z,-7.75
2022-12-18T09:59:42.417Z,-7.68
2022-12-18T10:02:25.870Z,-7.62
2022-12-18T10:05:15.602Z,-7.51
2022-12-18T10:08:21.639Z,-7.37
2022-12-18T10:10:55.498Z,-7.23
2022-12-18T10:13:40.139Z,-7.12
2022-12-18T10:16:54.597Z,-7.09
2022-12-18T10:19:30.546Z,-7.07
2022-12-18T10:22:16.003Z,-7.00
2022-12-18T10:24:47.790Z,-6.93
2022-12-18T10:27:18.188Z,-6.87
2022-12-18T10:29:46.630Z,-6.82
2022-12-18T10:32:23.030Z,-6.74
2022-12-18T10:34:56.699Z,-6.72
2022-12-18T10:37:29.272Z,-6.71
2022-12-18T10:40:25.500Z,-6.69
2022-12-18T10:43:12.617Z,-6.64
2022-12-18T10:45:40.208Z,-6.60
2022-12-18T10:48:22.909Z,-6.57
2022-12-18T10:53:42.005Z,-6.56
2022-12-18T10:56:11.793Z,-6.56
2022-12-18T10:58:40.949Z,-6.53
2022-12-18T11:01:14.940Z,-6.50
2022-12-18T11:03:45.554Z,-6.53
2022-12-18T11:06:19.065Z,-6.52
2022-12-18T11:09:01.132Z,-6.48
2022-12-18T11:11:29.676Z,-6.49
2022-12-18T11:14:02.664Z,-6.52
2022-12-18T11:16:34.363Z,-6.59
2022-12-18T11:19:21.656Z,-6.54
2022-12-18T11:21:49.715Z,-6.51
2022-12-18T11:24:38.448Z,-6.50
2022-12-18T11:27:16.220Z,-6.48
2022-12-18T11:29:46.620Z,-6.46
2022-12-18T11:32:39.909Z,-6.44
2022-12-18T11:35:20.199Z,-6.41
2022-12-18T11:37:58.129Z,-6.37
2022-12-18T11:40:40.848Z,-6.32
2022-12-18T11:43:42.831Z,-6.28
2022-12-18T11:47:10.543Z,-6.25
2022-12-18T11:49:42.052Z,-6.22
2022-12-18T11:52:22.243Z,-6.20
2022-12-18T11:54:52.646Z,-6.18
2022-12-18T11:57:40.265Z,-6.18
2022-12-18T12:00:56.112Z,-6.17
2022-12-18T12:03:47.171Z,-6.08
2022-12-18T12:06:15.134Z,-6.06
2022-12-18T12:09:12.824Z,-5.96
2022-12-18T12:11:55.088Z,-5.88
2022-12-18T12:14:28.003Z,-5.82
2022-12-18T12:17:28.220Z,-5.75
2022-12-18T12:19:59.704Z,-5.63
2022-12-18T12:22:58.788Z,-5.55
2022-12-18T12:25:41.310Z,-5.44
2022-12-18T12:28:47.338Z,-5.33
2022-12-18T12:31:33.272Z,-5.29
2022-12-18T12:34:07.862Z,-5.29
2022-12-18T12:36:46.209Z,-5.30
2022-12-18T12:39:24.066Z,-5.33
2022-12-18T12:42:10.143Z,-5.37
2022-12-18T12:44:55.665Z,-5.42
2022-12-18T12:47:40.057Z,-5.41
2022-12-18T12:50:18.897Z,-5.44
2022-12-18T12:52:50.342Z,-5.47
2022-12-18T12:55:29.235Z,-5.50
2022-12-18T12:58:58.042Z,-5.54
2022-12-18T13:01:31.371Z,-5.61
2022-12-18T13:04:13.695Z,-5.67
2022-12-18T13:06:50.871Z,-5.73
2022-12-18T13:09:17.896Z,-5.78
2022-12-18T13:12:06.216Z,-5.85
2022-12-18T13:14:38.439Z,-5.90
2022-12-18T13:17:29.729Z,-5.93
2022-12-18T13:20:08.932Z,-5.93
2022-12-18T13:22:39.869Z,-5.92
2022-12-18T13:25:42.241Z,-5.95
2022-12-18T13:28:16.690Z,-6.00
2022-12-18T13:30:47.831Z,-6.05
2022-12-18T13:33:18.591Z,-6.11
2022-12-18T13:35:48.241Z,-6.20
2022-12-18T13:38:37.120Z,-6.26
2022-12-18T13:41:22.614Z,-6.31
2022-12-18T13:43:53.112Z,-6.37
2022-12-18T13:46:30.636Z,-6.39
2022-12-18T13:49:03.423Z,-6.41
2022-12-18T13:51:33.403Z,-6.44
2022-12-18T13:54:14.450Z,-6.47
2022-12-18T13:56:46.157Z,-6.50
2022-12-18T13:59:26.735Z,-6.54
2022-12-18T14:01:59.973Z,-6.55
2022-12-18T14:04:35.115Z,-6.55
2022-12-18T14:07:04.705Z,-6.53
2022-12-18T14:09:36.721Z,-6.53
2022-12-18T14:12:24.460Z,-6.54
2022-12-18T14:14:55.160Z,-6.59
2022-12-18T14:17:23.452Z,-6.65
2022-12-18T14:19:51.984Z,-6.67
2022-12-18T14:22:22.583Z,-6.65
2022-12-18T14:25:25.768Z,-6.64
2022-12-18T14:27:55.285Z,-6.65
2022-12-18T14:30:45.475Z,-6.66
2022-12-18T14:33:22.005Z,-6.71
2022-12-18T14:36:06.054Z,-6.75
2022-12-18T14:38:40.510Z,-6.75
2022-12-18T14:41:16.234Z,-6.75
2022-12-18T14:43:45.395Z,-6.76
2022-12-18T14:46:33.962Z,-6.76
2022-12-18T14:49:33.956Z,-6.77
2022-12-18T14:52:06.796Z,-6.81
2022-12-18T14:54:37.751Z,-6.82
2022-12-18T14:57:26.980Z,-6.80
2022-12-18T14:59:53.972Z,-6.75
2022-12-18T15:02:27.245Z,-6.73
2022-12-18T15:05:13.536Z,-6.70
2022-12-18T15:07:51.423Z,-6.71
2022-12-18T15:10:21.527Z,-6.72
2022-12-18T15:13:08.257Z,-6.73
2022-12-18T15:15:42.955Z,-6.76
2022-12-18T15:18:12.859Z,-6.76
2022-12-18T15:20:59.599Z,-6.75
2022-12-18T15:23:26.354Z,-6.72
2022-12-18T15:26:02.900Z,-6.70
2022-12-18T15:28:39.109Z,-6.68
2022-12-18T15:31:11.863Z,-6.68
2022-12-18T15:33:45.161Z,-6.66
2022-12-18T15:36:24.010Z,-6.65
2022-12-18T15:38:56.048Z,-6.65
2022-12-18T15:42:09.949Z,-6.61
2022-12-18T15:44:37.793Z,-6.55
2022-12-18T15:47:11.841Z,-6.51
2022-12-18T15:49:38.833Z,-6.49
2022-12-18T15:52:06.135Z,-6.48
2022-12-18T15:54:53.858Z,-6.49
2022-12-18T15:57:23.186Z,-6.51
2022-12-18T15:59:53.147Z,-6.50
2022-12-18T16:02:22.943Z,-6.46
2022-12-18T16:04:51.017Z,-6.42
2022-12-18T16:07:22.922Z,-6.40
2022-12-18T16:09:52.925Z,-6.42
2022-12-18T16:12:25.461Z,-6.42
2022-12-18T16:14:52.866Z,-6.43
2022-12-18T16:17:20.440Z,-6.43
2022-12-18T16:19:47.241Z,-6.42
2022-12-18T16:22:25.746Z,-6.38
2022-12-18T16:24:54.955Z,-6.34
2022-12-18T16:27:23.588Z,-6.31
2022-12-18T16:29:51.045Z,-6.31
2022-12-18T16:32:20.731Z,-6.28
2022-12-18T16:34:47.892Z,-6.27
2022-12-18T16:37:15.769Z,-6.23
2022-12-18T16:39:43.208Z,-6.18
2022-12-18T16:42:17.503Z,-6.15
2022-12-18T16:44:46.782Z,-6.14
2022-12-18T16:47:15.209Z,-6.13
2022-12-18T16:49:45.337Z,-6.12
2022-12-18T16:52:13.115Z,-6.11
2022-12-18T16:54:40.205Z,-6.09
2022-12-18T16:57:08.624Z,-6.05
2022-12-18T16:59:35.528Z,-6.03
2022-12-18T17:02:06.336Z,-6.00
2022-12-18T17:04:33.713Z,-5.97
2022-12-18T17:07:01.010Z,-5.96
2022-12-18T17:09:27.855Z,-5.95
2022-12-18T17:11:55.357Z,-5.92
2022-12-18T17:14:24.243Z,-5.86
2022-12-18T17:17:19.848Z,-5.83
2022-12-18T17:19:43.401Z,-5.81
2022-12-18T17:22:10.215Z,-5.79
2022-12-18T17:24:37.006Z,-5.78
2022-12-18T17:27:04.569Z,-5.74
2022-12-18T17:29:32.763Z,-5.71
2022-12-18T17:32:00.509Z,-5.67
2022-12-18T17:34:28.255Z,-5.63
2022-12-18T17:36:55.826Z,-5.63
2022-12-18T17:39:22.898Z,-5.62
2022-12-18T17:41:50.005Z,-5.62
2022-12-18T17:44:18.185Z,-5.62
2022-12-18T17:46:46.187Z,-5.61
2022-12-18T17:49:14.303Z,-5.60
2022-12-18T17:51:52.642Z,-5.57
2022-12-18T17:54:41.093Z,-5.63
2022-12-18T17:57:11.048Z,-5.56
2022-12-18T17:59:38.072Z,-5.56
2022-12-18T18:02:06.962Z,-5.56
2022-12-18T18:04:34.082Z,-5.53
2022-12-18T18:07:02.064Z,-5.51
2022-12-18T18:09:29.207Z,-5.49
2022-12-18T18:12:15.014Z,-5.48
2022-12-18T18:14:41.930Z,-5.47
2022-12-18T18:17:08.869Z,-5.46
2022-12-18T18:19:35.726Z,-5.43
2022-12-18T18:22:03.130Z,-5.39
2022-12-18T18:24:33.013Z,-5.37
2022-12-18T18:26:59.829Z,-5.34
2022-12-18T18:29:29.803Z,-5.36
2022-12-18T18:31:56.806Z,-5.35
2022-12-18T18:34:26.273Z,-5.36
2022-12-18T18:36:53.755Z,-5.37
2022-12-18T18:39:21.081Z,-5.36
2022-12-18T18:41:48.759Z,-5.35
2022-12-18T18:44:17.268Z,-5.32
2022-12-18T18:46:53.940Z,-5.31
2022-12-18T18:49:23.687Z,-5.30
2022-12-18T18:51:51.690Z,-5.27
2022-12-18T18:54:20.806Z,-5.27
2022-12-18T18:59:37.945Z,-5.24
2022-12-18T19:02:05.342Z,-5.20
2022-12-18T19:04:35.947Z,-5.21
2022-12-18T19:07:04.772Z,-5.14
2022-12-18T19:09:32.133Z,-5.16
2022-12-18T19:12:19.694Z,-5.17
2022-12-18T19:14:46.843Z,-5.18
2022-12-18T19:17:13.636Z,-5.17
2022-12-18T19:19:40.676Z,-5.15
2022-12-18T19:22:08.925Z,-5.11
2022-12-18T19:24:36.218Z,-5.08
2022-12-18T19:27:03.422Z,-5.08
2022-12-18T19:29:30.404Z,-5.10
2022-12-18T19:31:57.204Z,-5.14
2022-12-18T19:34:24.053Z,-5.14
2022-12-18T19:36:55.274Z,-5.15
2022-12-18T19:39:26.266Z,-5.12
2022-12-18T19:41:53.086Z,-5.09
2022-12-18T19:44:21.065Z,-5.05
2022-12-18T19:46:51.591Z,-5.03
2022-12-18T19:49:18.563Z,-5.01
2022-12-18T19:51:45.756Z,-5.03
2022-12-18T19:54:16.692Z,-5.05
2022-12-18T19:56:45.290Z,-5.06
2022-12-18T19:59:13.497Z,-5.06
2022-12-18T20:01:40.866Z,-5.04
2022-12-18T20:04:07.918Z,-5.05
2022-12-18T20:06:53.384Z,-5.03
2022-12-18T20:09:20.972Z,-5.02
2022-12-18T20:11:48.952Z,-5.03
2022-12-18T20:14:16.897Z,-5.04
2022-12-18T20:16:51.744Z,-5.08
2022-12-18T20:19:18.734Z,-5.07
2022-12-18T20:21:45.814Z,-5.02
2022-12-18T20:24:12.707Z,-4.97
2022-12-18T20:26:40.147Z,-4.93
2022-12-18T20:29:07.041Z,-4.94
2022-12-18T20:31:34.005Z,-4.96
2022-12-18T20:34:02.647Z,-4.98
2022-12-18T20:36:31.863Z,-5.00
2022-12-18T20:39:03.857Z,-5.00
2022-12-18T20:41:33.523Z,-4.98
2022-12-18T20:44:09.847Z,-4.98
2022-12-18T20:46:56.172Z,-4.98
2022-12-18T20:49:25.329Z,-4.98
2022-12-18T20:51:55.602Z,-5.00
2022-12-18T20:54:24.379Z,-5.01
2022-12-18T20:56:51.519Z,-5.00
2022-12-18T20:59:19.544Z,-4.99
2022-12-18T21:01:48.863Z,-5.00
2022-12-18T21:04:18.224Z,-5.01
2022-12-18T21:06:51.312Z,-5.05
2022-12-18T21:09:21.149Z,-5.04
2022-12-18T21:12:07.744Z,-5.05
2022-12-18T21:14:39.867Z,-5.06
2022-12-18T21:17:06.920Z,-5.04
2022-12-18T21:19:36.918Z,-5.02
2022-12-18T21:22:04.451Z,-5.01
2022-12-18T21:24:32.672Z,-5.02
2022-12-18T21:26:59.903Z,-5.02
2022-12-18T21:29:27.216Z,-5.04
2022-12-18T21:31:54.471Z,-5.06
2022-12-18T21:34:28.622Z,-5.08
2022-12-18T21:36:58.654Z,-5.09
2022-12-18T21:39:28.642Z,-5.08
2022-12-18T21:42:15.849Z,-5.07
2022-12-18T21:44:44.180Z,-5.08
2022-12-18T21:47:20.862Z,-5.09
2022-12-18T21:49:52.146Z,-5.12
2022-12-18T21:52:21.563Z,-5.12
2022-12-18T21:54:50.841Z,-5.12
2022-12-18T21:57:18.229Z,-5.10
2022-12-18T21:59:45.164Z,-5.09
2022-12-18T22:02:15.906Z,-5.11
2022-12-18T22:04:45.423Z,-5.15
2022-12-18T22:07:14.555Z,-5.18
2022-12-18T22:09:42.475Z,-5.21
2022-12-18T22:12:11.996Z,-5.22
2022-12-18T22:14:38.760Z,-5.22
2022-12-18T22:17:05.804Z,-5.20
2022-12-18T22:19:38.118Z,-5.21
2022-12-18T22:22:09.682Z,-5.23
2022-12-18T22:24:36.515Z,-5.24
2022-12-18T22:27:03.269Z,-5.27
2022-12-18T22:29:48.690Z,-5.26
2022-12-18T22:32:16.606Z,-5.26
2022-12-18T22:34:44.840Z,-5.26
2022-12-18T22:37:12.102Z,-5.27
2022-12-18T22:39:39.558Z,-5.29
2022-12-18T22:42:07.114Z,-5.32
2022-12-18T22:44:33.942Z,-5.33
2022-12-18T22:47:06.455Z,-5.34
2022-12-18T22:49:34.846Z,-5.33
2022-12-18T22:52:03.615Z,-5.33
2022-12-18T22:54:30.443Z,-5.34
2022-12-18T22:56:57.534Z,-5.36
2022-12-18T22:59:24.449Z,-5.38
2022-12-18T23:01:58.451Z,-5.39
2022-12-18T23:04:36.207Z,-5.39
2022-12-18T23:07:05.671Z,-5.36
2022-12-18T23:09:33.018Z,-5.36
2022-12-18T23:12:00.279Z,-5.36
2022-12-18T23:14:28.128Z,-5.38
2022-12-18T23:16:56.033Z,-5.42
2022-12-18T23:19:24.129Z,-5.44
2022-12-18T23:21:51.544Z,-5.46
2022-12-18T23:24:18.373Z,-5.42
2022-12-18T23:26:46.517Z,-5.39
2022-12-18T23:29:13.219Z,-5.38
2022-12-18T23:31:40.213Z,-5.39
2022-12-18T23:34:07.557Z,-5.40
2022-12-18T23:36:45.715Z,-5.41
2022-12-18T23:39:29.065Z,-5.41
2022-12-18T23:41:58.113Z,-5.41
2022-12-18T23:44:25.250Z,-5.39
2022-12-18T23:46:52.204Z,-5.37
2022-12-18T23:49:18.989Z,-5.36
2022-12-18T23:51:45.817Z,-5.37
2022-12-18T23:54:12.513Z,-5.38
2022-12-18T23:56:39.249Z,-5.40
2022-12-18T23:59:06.280Z,-5.44
